sensor_id;sensor_type;location;lat;lon;timestamp;pressure;altitude;pressure_sealevel;temperature;humidity
41706;BME280;27385;51.096;17.190;2023-12-20T00:01:52;99732.91;;;6.19;93.69
41706;BME280;27385;51.096;17.190;2023-12-20T00:04:43;99726.85;;;6.19;93.77
41706;BME280;27385;51.096;17.190;2023-12-20T00:07:33;99731.84;;;6.18;93.93
41706;BME280;27385;51.096;17.190;2023-12-20T00:10:24;99733.04;;;6.18;93.84
41706;BME280;27385;51.096;17.190;2023-12-20T00:13:13;99715.80;;;6.20;93.95
41706;BME280;27385;51.096;17.190;2023-12-20T00:16:05;99726.39;;;6.20;94.01
41706;BME280;27385;51.096;17.190;2023-12-20T00:18:56;99723.45;;;6.20;93.98
41706;BME280;27385;51.096;17.190;2023-12-20T00:21:46;99714.38;;;6.21;94.02
41706;BME280;27385;51.096;17.190;2023-12-20T00:24:35;99711.84;;;6.21;93.98
41706;BME280;27385;51.096;17.190;2023-12-20T00:27:26;99710.04;;;6.19;94.11
41706;BME280;27385;51.096;17.190;2023-12-20T00:30:17;99715.40;;;6.18;94.23
41706;BME280;27385;51.096;17.190;2023-12-20T00:33:06;99720.81;;;6.17;94.28
41706;BME280;27385;51.096;17.190;2023-12-20T00:35:57;99717.48;;;6.16;94.51
41706;BME280;27385;51.096;17.190;2023-12-20T00:38:47;99720.27;;;6.15;94.44
41706;BME280;27385;51.096;17.190;2023-12-20T00:41:38;99721.41;;;6.15;94.52
41706;BME280;27385;51.096;17.190;2023-12-20T00:44:29;99715.33;;;6.14;94.64
41706;BME280;27385;51.096;17.190;2023-12-20T00:47:20;99709.05;;;6.13;94.76
41706;BME280;27385;51.096;17.190;2023-12-20T00:50:11;99707.08;;;6.13;94.75
41706;BME280;27385;51.096;17.190;2023-12-20T00:53:02;99705.38;;;6.11;94.83
41706;BME280;27385;51.096;17.190;2023-12-20T00:55:53;99701.78;;;6.11;94.93
41706;BME280;27385;51.096;17.190;2023-12-20T00:58:44;99708.93;;;6.10;95.18
41706;BME280;27385;51.096;17.190;2023-12-20T01:01:35;99707.63;;;6.09;95.24
41706;BME280;27385;51.096;17.190;2023-12-20T01:04:24;99704.40;;;6.09;95.47
41706;BME280;27385;51.096;17.190;2023-12-20T01:07:14;99699.77;;;6.08;95.83
41706;BME280;27385;51.096;17.190;2023-12-20T01:10:06;99701.60;;;6.06;95.89
41706;BME280;27385;51.096;17.190;2023-12-20T01:12:57;99692.69;;;6.05;95.99
41706;BME280;27385;51.096;17.190;2023-12-20T01:15:47;99695.65;;;6.04;96.04
41706;BME280;27385;51.096;17.190;2023-12-20T01:18:38;99694.02;;;6.04;96.23
41706;BME280;27385;51.096;17.190;2023-12-20T01:21:27;99690.83;;;6.03;96.37
41706;BME280;27385;51.096;17.190;2023-12-20T01:24:18;99688.52;;;6.02;96.50
41706;BME280;27385;51.096;17.190;2023-12-20T01:27:08;99687.42;;;6.02;96.67
41706;BME280;27385;51.096;17.190;2023-12-20T01:29:57;99690.52;;;6.02;96.66
41706;BME280;27385;51.096;17.190;2023-12-20T01:32:48;99691.00;;;6.02;96.90
41706;BME280;27385;51.096;17.190;2023-12-20T01:35:38;99683.19;;;6.01;96.93
41706;BME280;27385;51.096;17.190;2023-12-20T01:38:28;99679.02;;;6.01;97.09
41706;BME280;27385;51.096;17.190;2023-12-20T01:41:19;99674.27;;;5.99;97.19
41706;BME280;27385;51.096;17.190;2023-12-20T01:44:10;99669.72;;;5.98;97.26
41706;BME280;27385;51.096;17.190;2023-12-20T01:47:01;99673.42;;;5.98;97.49
41706;BME280;27385;51.096;17.190;2023-12-20T01:49:52;99663.69;;;5.98;97.53
41706;BME280;27385;51.096;17.190;2023-12-20T01:52:43;99661.42;;;5.98;97.69
41706;BME280;27385;51.096;17.190;2023-12-20T01:55:36;99659.52;;;5.98;97.83
41706;BME280;27385;51.096;17.190;2023-12-20T01:58:29;99653.38;;;5.97;97.98
41706;BME280;27385;51.096;17.190;2023-12-20T02:01:20;99646.83;;;5.97;98.04
41706;BME280;27385;51.096;17.190;2023-12-20T02:04:11;99649.56;;;5.97;98.15
41706;BME280;27385;51.096;17.190;2023-12-20T02:07:03;99652.91;;;5.96;98.18
41706;BME280;27385;51.096;17.190;2023-12-20T02:09:54;99653.96;;;5.96;98.29
41706;BME280;27385;51.096;17.190;2023-12-20T02:12:45;99641.41;;;5.95;98.46
41706;BME280;27385;51.096;17.190;2023-12-20T02:15:36;99633.31;;;5.96;98.52
41706;BME280;27385;51.096;17.190;2023-12-20T02:18:27;99643.73;;;5.97;98.52
41706;BME280;27385;51.096;17.190;2023-12-20T02:21:18;99647.27;;;5.98;98.66
41706;BME280;27385;51.096;17.190;2023-12-20T02:24:10;99645.13;;;5.97;98.68
41706;BME280;27385;51.096;17.190;2023-12-20T02:27:02;99642.77;;;5.97;98.70
41706;BME280;27385;51.096;17.190;2023-12-20T02:29:53;99641.46;;;5.98;98.88
41706;BME280;27385;51.096;17.190;2023-12-20T02:32:44;99635.93;;;5.98;98.88
41706;BME280;27385;51.096;17.190;2023-12-20T02:35:34;99633.27;;;5.99;98.90
41706;BME280;27385;51.096;17.190;2023-12-20T02:38:25;99629.84;;;5.98;98.90
41706;BME280;27385;51.096;17.190;2023-12-20T02:41:15;99631.83;;;5.97;99.06
41706;BME280;27385;51.096;17.190;2023-12-20T02:44:07;99628.11;;;5.97;99.09
41706;BME280;27385;51.096;17.190;2023-12-20T02:46:58;99629.48;;;5.98;99.00
41706;BME280;27385;51.096;17.190;2023-12-20T02:49:49;99626.81;;;5.98;99.16
41706;BME280;27385;51.096;17.190;2023-12-20T02:52:40;99624.50;;;5.98;99.14
41706;BME280;27385;51.096;17.190;2023-12-20T02:55:31;99614.33;;;5.98;99.08
41706;BME280;27385;51.096;17.190;2023-12-20T02:58:22;99612.94;;;5.97;99.07
41706;BME280;27385;51.096;17.190;2023-12-20T03:01:13;99608.87;;;5.96;99.19
41706;BME280;27385;51.096;17.190;2023-12-20T03:04:04;99603.75;;;5.95;98.99
41706;BME280;27385;51.096;17.190;2023-12-20T03:06:54;99596.98;;;5.94;99.21
41706;BME280;27385;51.096;17.190;2023-12-20T03:09:45;99597.30;;;5.92;99.03
41706;BME280;27385;51.096;17.190;2023-12-20T03:12:36;99600.92;;;5.91;99.06
41706;BME280;27385;51.096;17.190;2023-12-20T03:15:25;99597.14;;;5.89;99.04
41706;BME280;27385;51.096;17.190;2023-12-20T03:18:15;99599.48;;;5.86;99.20
41706;BME280;27385;51.096;17.190;2023-12-20T03:21:07;99605.45;;;5.85;99.21
41706;BME280;27385;51.096;17.190;2023-12-20T03:23:58;99606.23;;;5.83;99.40
41706;BME280;27385;51.096;17.190;2023-12-20T03:26:47;99599.98;;;5.81;99.25
41706;BME280;27385;51.096;17.190;2023-12-20T03:29:37;99595.49;;;5.79;99.39
41706;BME280;27385;51.096;17.190;2023-12-20T03:32:26;99594.75;;;5.78;99.48
41706;BME280;27385;51.096;17.190;2023-12-20T03:35:17;99598.31;;;5.75;99.48
41706;BME280;27385;51.096;17.190;2023-12-20T03:38:08;99600.05;;;5.74;99.56
41706;BME280;27385;51.096;17.190;2023-12-20T03:40:59;99595.36;;;5.72;99.33
41706;BME280;27385;51.096;17.190;2023-12-20T03:43:50;99603.95;;;5.71;99.34
41706;BME280;27385;51.096;17.190;2023-12-20T03:46:41;99606.08;;;5.70;99.42
41706;BME280;27385;51.096;17.190;2023-12-20T03:49:31;99609.89;;;5.68;99.39
41706;BME280;27385;51.096;17.190;2023-12-20T03:52:22;99609.88;;;5.66;99.19
41706;BME280;27385;51.096;17.190;2023-12-20T03:55:12;99607.83;;;5.64;99.18
41706;BME280;27385;51.096;17.190;2023-12-20T03:58:02;99608.59;;;5.63;99.24
41706;BME280;27385;51.096;17.190;2023-12-20T04:00:52;99609.45;;;5.60;99.37
41706;BME280;27385;51.096;17.190;2023-12-20T04:03:41;99608.86;;;5.57;99.32
41706;BME280;27385;51.096;17.190;2023-12-20T04:06:32;99609.97;;;5.55;99.34
41706;BME280;27385;51.096;17.190;2023-12-20T04:09:23;99608.94;;;5.53;99.46
41706;BME280;27385;51.096;17.190;2023-12-20T04:12:12;99607.54;;;5.51;99.29
41706;BME280;27385;51.096;17.190;2023-12-20T04:15:03;99615.30;;;5.48;99.32
41706;BME280;27385;51.096;17.190;2023-12-20T04:17:58;99613.44;;;5.46;99.23
41706;BME280;27385;51.096;17.190;2023-12-20T04:20:49;99609.15;;;5.42;99.10
41706;BME280;27385;51.096;17.190;2023-12-20T04:23:42;99609.64;;;5.40;99.26
41706;BME280;27385;51.096;17.190;2023-12-20T04:26:32;99612.41;;;5.38;99.27
41706;BME280;27385;51.096;17.190;2023-12-20T04:29:23;99612.23;;;5.37;99.38
41706;BME280;27385;51.096;17.190;2023-12-20T04:32:14;99613.66;;;5.37;99.44
41706;BME280;27385;51.096;17.190;2023-12-20T04:35:03;99615.11;;;5.36;99.52
41706;BME280;27385;51.096;17.190;2023-12-20T04:37:54;99609.45;;;5.34;99.63
41706;BME280;27385;51.096;17.190;2023-12-20T04:40:45;99606.55;;;5.34;99.57
41706;BME280;27385;51.096;17.190;2023-12-20T04:43:37;99604.67;;;5.32;99.79
41706;BME280;27385;51.096;17.190;2023-12-20T04:46:28;99607.51;;;5.31;99.86
41706;BME280;27385;51.096;17.190;2023-12-20T04:49:18;99602.52;;;5.29;99.86
41706;BME280;27385;51.096;17.190;2023-12-20T04:52:07;99604.34;;;5.27;99.94
41706;BME280;27385;51.096;17.190;2023-12-20T04:54:58;99598.77;;;5.25;99.95
41706;BME280;27385;51.096;17.190;2023-12-20T04:57:49;99596.70;;;5.25;99.92
41706;BME280;27385;51.096;17.190;2023-12-20T05:00:40;99592.09;;;5.23;99.95
41706;BME280;27385;51.096;17.190;2023-12-20T05:03:31;99592.83;;;5.23;99.97
41706;BME280;27385;51.096;17.190;2023-12-20T05:06:23;99592.70;;;5.20;99.98
41706;BME280;27385;51.096;17.190;2023-12-20T05:09:14;99593.84;;;5.18;99.95
41706;BME280;27385;51.096;17.190;2023-12-20T05:12:06;99589.83;;;5.17;100.00
41706;BME280;27385;51.096;17.190;2023-12-20T05:14:57;99588.20;;;5.14;100.00
41706;BME280;27385;51.096;17.190;2023-12-20T05:17:48;99585.95;;;5.12;100.00
41706;BME280;27385;51.096;17.190;2023-12-20T05:20:39;99585.87;;;5.11;100.00
41706;BME280;27385;51.096;17.190;2023-12-20T05:23:30;99586.91;;;5.09;100.00
41706;BME280;27385;51.096;17.190;2023-12-20T05:26:21;99588.75;;;5.07;100.00
41706;BME280;27385;51.096;17.190;2023-12-20T05:29:12;99590.48;;;5.05;100.00
41706;BME280;27385;51.096;17.190;2023-12-20T05:32:03;99591.70;;;5.04;100.00
41706;BME280;27385;51.096;17.190;2023-12-20T05:34:55;99593.61;;;5.02;100.00
41706;BME280;27385;51.096;17.190;2023-12-20T05:37:46;99593.80;;;5.02;100.00
41706;BME280;27385;51.096;17.190;2023-12-20T05:40:37;99597.63;;;5.01;100.00
41706;BME280;27385;51.096;17.190;2023-12-20T05:43:28;99601.86;;;4.99;100.00
41706;BME280;27385;51.096;17.190;2023-12-20T05:46:19;99606.98;;;4.98;100.00
41706;BME280;27385;51.096;17.190;2023-12-20T05:49:10;99604.55;;;4.95;100.00
41706;BME280;27385;51.096;17.190;2023-12-20T05:52:01;99605.16;;;4.93;100.00
41706;BME280;27385;51.096;17.190;2023-12-20T05:54:52;99599.49;;;4.92;100.00
41706;BME280;27385;51.096;17.190;2023-12-20T05:57:43;99600.64;;;4.92;100.00
41706;BME280;27385;51.096;17.190;2023-12-20T06:00:34;99596.27;;;4.91;100.00
41706;BME280;27385;51.096;17.190;2023-12-20T06:03:25;99595.75;;;4.90;100.00
41706;BME280;27385;51.096;17.190;2023-12-20T06:06:16;99591.44;;;4.89;100.00
41706;BME280;27385;51.096;17.190;2023-12-20T06:09:07;99591.25;;;4.88;100.00
41706;BME280;27385;51.096;17.190;2023-12-20T06:11:57;99597.95;;;4.86;100.00
41706;BME280;27385;51.096;17.190;2023-12-20T06:14:48;99594.75;;;4.85;100.00
41706;BME280;27385;51.096;17.190;2023-12-20T06:17:39;99587.27;;;4.84;100.00
41706;BME280;27385;51.096;17.190;2023-12-20T06:20:30;99589.52;;;4.83;100.00
41706;BME280;27385;51.096;17.190;2023-12-20T06:23:21;99593.46;;;4.84;100.00
41706;BME280;27385;51.096;17.190;2023-12-20T06:26:12;99593.70;;;4.84;100.00
41706;BME280;27385;51.096;17.190;2023-12-20T06:29:03;99591.10;;;4.84;100.00
41706;BME280;27385;51.096;17.190;2023-12-20T06:31:54;99593.76;;;4.84;100.00
41706;BME280;27385;51.096;17.190;2023-12-20T06:34:45;99594.90;;;4.84;100.00
41706;BME280;27385;51.096;17.190;2023-12-20T06:37:36;99594.20;;;4.83;100.00
41706;BME280;27385;51.096;17.190;2023-12-20T06:40:27;99596.22;;;4.82;100.00
41706;BME280;27385;51.096;17.190;2023-12-20T06:43:17;99599.56;;;4.81;100.00
41706;BME280;27385;51.096;17.190;2023-12-20T06:46:08;99601.56;;;4.81;100.00
41706;BME280;27385;51.096;17.190;2023-12-20T06:49:00;99605.44;;;4.81;100.00
41706;BME280;27385;51.096;17.190;2023-12-20T06:51:51;99600.98;;;4.82;100.00
41706;BME280;27385;51.096;17.190;2023-12-20T06:54:42;99598.26;;;4.83;100.00
41706;BME280;27385;51.096;17.190;2023-12-20T06:57:33;99598.52;;;4.82;100.00
41706;BME280;27385;51.096;17.190;2023-12-20T07:00:25;99600.36;;;4.81;100.00
41706;BME280;27385;51.096;17.190;2023-12-20T07:03:16;99606.69;;;4.81;100.00
41706;BME280;27385;51.096;17.190;2023-12-20T07:06:07;99611.63;;;4.80;100.00
41706;BME280;27385;51.096;17.190;2023-12-20T07:08:59;99612.21;;;4.79;100.00
41706;BME280;27385;51.096;17.190;2023-12-20T07:11:50;99608.73;;;4.80;100.00
41706;BME280;27385;51.096;17.190;2023-12-20T07:14:41;99611.55;;;4.80;100.00
41706;BME280;27385;51.096;17.190;2023-12-20T07:17:32;99612.90;;;4.80;100.00
41706;BME280;27385;51.096;17.190;2023-12-20T07:20:23;99615.66;;;4.80;100.00
41706;BME280;27385;51.096;17.190;2023-12-20T07:23:14;99618.22;;;4.81;100.00
41706;BME280;27385;51.096;17.190;2023-12-20T07:26:05;99613.27;;;4.81;100.00
41706;BME280;27385;51.096;17.190;2023-12-20T07:28:56;99617.84;;;4.81;100.00
41706;BME280;27385;51.096;17.190;2023-12-20T07:31:48;99620.33;;;4.80;100.00
41706;BME280;27385;51.096;17.190;2023-12-20T07:34:41;99619.70;;;4.80;100.00
41706;BME280;27385;51.096;17.190;2023-12-20T07:37:32;99622.34;;;4.79;100.00
41706;BME280;27385;51.096;17.190;2023-12-20T07:40:23;99621.84;;;4.80;100.00
41706;BME280;27385;51.096;17.190;2023-12-20T07:43:14;99620.93;;;4.78;100.00
41706;BME280;27385;51.096;17.190;2023-12-20T07:46:09;99624.55;;;4.79;100.00
41706;BME280;27385;51.096;17.190;2023-12-20T07:49:00;99621.40;;;4.79;100.00
41706;BME280;27385;51.096;17.190;2023-12-20T07:51:51;99623.84;;;4.79;100.00
41706;BME280;27385;51.096;17.190;2023-12-20T07:54:42;99624.77;;;4.79;100.00
41706;BME280;27385;51.096;17.190;2023-12-20T07:57:33;99626.61;;;4.79;100.00
41706;BME280;27385;51.096;17.190;2023-12-20T08:00:24;99626.86;;;4.78;100.00
41706;BME280;27385;51.096;17.190;2023-12-20T08:03:15;99633.21;;;4.77;100.00
41706;BME280;27385;51.096;17.190;2023-12-20T08:06:07;99628.48;;;4.77;100.00
41706;BME280;27385;51.096;17.190;2023-12-20T08:08:58;99634.33;;;4.77;100.00
41706;BME280;27385;51.096;17.190;2023-12-20T08:11:49;99630.55;;;4.77;100.00
41706;BME280;27385;51.096;17.190;2023-12-20T08:14:41;99625.89;;;4.77;100.00
41706;BME280;27385;51.096;17.190;2023-12-20T08:17:32;99626.17;;;4.78;100.00
41706;BME280;27385;51.096;17.190;2023-12-20T08:20:23;99629.08;;;4.78;100.00
41706;BME280;27385;51.096;17.190;2023-12-20T08:23:14;99632.11;;;4.77;100.00
41706;BME280;27385;51.096;17.190;2023-12-20T08:26:07;99632.55;;;4.79;100.00
41706;BME280;27385;51.096;17.190;2023-12-20T08:28:58;99628.61;;;4.78;100.00
41706;BME280;27385;51.096;17.190;2023-12-20T08:31:53;99638.71;;;4.78;100.00
41706;BME280;27385;51.096;17.190;2023-12-20T08:34:44;99644.84;;;4.77;100.00
41706;BME280;27385;51.096;17.190;2023-12-20T08:37:35;99636.33;;;4.77;100.00
41706;BME280;27385;51.096;17.190;2023-12-20T08:40:26;99637.25;;;4.77;100.00
41706;BME280;27385;51.096;17.190;2023-12-20T08:43:17;99631.16;;;4.78;100.00
41706;BME280;27385;51.096;17.190;2023-12-20T08:46:09;99642.33;;;4.79;100.00
41706;BME280;27385;51.096;17.190;2023-12-20T08:49:00;99650.70;;;4.81;100.00
41706;BME280;27385;51.096;17.190;2023-12-20T08:51:51;99652.84;;;4.81;100.00
41706;BME280;27385;51.096;17.190;2023-12-20T08:54:42;99660.28;;;4.82;100.00
41706;BME280;27385;51.096;17.190;2023-12-20T08:57:33;99658.84;;;4.83;100.00
41706;BME280;27385;51.096;17.190;2023-12-20T09:00:24;99659.39;;;4.83;100.00
41706;BME280;27385;51.096;17.190;2023-12-20T09:03:17;99659.95;;;4.85;100.00
41706;BME280;27385;51.096;17.190;2023-12-20T09:06:08;99664.49;;;4.84;100.00
41706;BME280;27385;51.096;17.190;2023-12-20T09:08:59;99662.23;;;4.83;100.00
41706;BME280;27385;51.096;17.190;2023-12-20T09:11:49;99656.20;;;4.84;100.00
41706;BME280;27385;51.096;17.190;2023-12-20T09:14:40;99659.80;;;4.85;100.00
41706;BME280;27385;51.096;17.190;2023-12-20T09:17:31;99664.60;;;4.85;100.00
41706;BME280;27385;51.096;17.190;2023-12-20T09:20:22;99658.02;;;4.86;100.00
41706;BME280;27385;51.096;17.190;2023-12-20T09:23:14;99663.92;;;4.86;100.00
41706;BME280;27385;51.096;17.190;2023-12-20T09:26:05;99669.52;;;4.87;100.00
41706;BME280;27385;51.096;17.190;2023-12-20T09:28:56;99670.31;;;4.86;100.00
41706;BME280;27385;51.096;17.190;2023-12-20T09:31:47;99670.56;;;4.86;100.00
41706;BME280;27385;51.096;17.190;2023-12-20T09:34:38;99674.55;;;4.88;100.00
41706;BME280;27385;51.096;17.190;2023-12-20T09:37:27;99677.97;;;4.88;100.00
41706;BME280;27385;51.096;17.190;2023-12-20T09:40:19;99669.74;;;4.89;100.00
41706;BME280;27385;51.096;17.190;2023-12-20T09:43:14;99673.45;;;4.92;100.00
41706;BME280;27385;51.096;17.190;2023-12-20T09:46:07;99674.03;;;4.92;100.00
41706;BME280;27385;51.096;17.190;2023-12-20T09:49:00;99675.02;;;4.94;100.00
41706;BME280;27385;51.096;17.190;2023-12-20T09:51:54;99672.73;;;4.96;100.00
41706;BME280;27385;51.096;17.190;2023-12-20T09:54:45;99660.16;;;4.98;100.00
41706;BME280;27385;51.096;17.190;2023-12-20T09:57:38;99660.23;;;5.00;100.00
41706;BME280;27385;51.096;17.190;2023-12-20T10:00:30;99655.88;;;5.02;100.00
41706;BME280;27385;51.096;17.190;2023-12-20T10:03:23;99649.40;;;5.06;100.00
41706;BME280;27385;51.096;17.190;2023-12-20T10:06:15;99651.91;;;5.10;100.00
41706;BME280;27385;51.096;17.190;2023-12-20T10:09:05;99648.23;;;5.13;100.00
41706;BME280;27385;51.096;17.190;2023-12-20T10:11:57;99643.05;;;5.17;100.00
41706;BME280;27385;51.096;17.190;2023-12-20T10:14:48;99636.87;;;5.19;100.00
41706;BME280;27385;51.096;17.190;2023-12-20T10:17:40;99639.05;;;5.20;100.00
41706;BME280;27385;51.096;17.190;2023-12-20T10:20:31;99640.02;;;5.21;100.00
41706;BME280;27385;51.096;17.190;2023-12-20T10:23:22;99643.55;;;5.22;100.00
41706;BME280;27385;51.096;17.190;2023-12-20T10:26:20;99642.17;;;5.22;100.00
41706;BME280;27385;51.096;17.190;2023-12-20T10:29:11;99644.23;;;5.22;100.00
41706;BME280;27385;51.096;17.190;2023-12-20T10:32:26;99647.45;;;5.23;100.00
41706;BME280;27385;51.096;17.190;2023-12-20T10:35:17;99642.85;;;5.23;100.00
41706;BME280;27385;51.096;17.190;2023-12-20T10:38:09;99638.54;;;5.24;100.00
41706;BME280;27385;51.096;17.190;2023-12-20T10:41:02;99637.98;;;5.24;100.00
41706;BME280;27385;51.096;17.190;2023-12-20T10:43:57;99641.50;;;5.25;100.00
41706;BME280;27385;51.096;17.190;2023-12-20T10:46:49;99647.39;;;5.28;100.00
41706;BME280;27385;51.096;17.190;2023-12-20T10:49:41;99648.56;;;5.32;100.00
41706;BME280;27385;51.096;17.190;2023-12-20T10:52:33;99645.25;;;5.34;100.00
41706;BME280;27385;51.096;17.190;2023-12-20T10:55:25;99646.80;;;5.35;100.00
41706;BME280;27385;51.096;17.190;2023-12-20T10:58:17;99645.52;;;5.35;100.00
41706;BME280;27385;51.096;17.190;2023-12-20T11:01:12;99644.45;;;5.35;100.00
41706;BME280;27385;51.096;17.190;2023-12-20T11:04:07;99633.61;;;5.33;99.98
41706;BME280;27385;51.096;17.190;2023-12-20T11:07:03;99625.86;;;5.32;100.00
41706;BME280;27385;51.096;17.190;2023-12-20T11:10:01;99623.16;;;5.34;99.82
41706;BME280;27385;51.096;17.190;2023-12-20T11:12:57;99624.61;;;5.38;99.97
41706;BME280;27385;51.096;17.190;2023-12-20T11:15:49;99622.73;;;5.41;99.97
41706;BME280;27385;51.096;17.190;2023-12-20T11:18:41;99620.26;;;5.42;99.42
41706;BME280;27385;51.096;17.190;2023-12-20T11:21:32;99614.38;;;5.42;99.25
41706;BME280;27385;51.096;17.190;2023-12-20T11:24:24;99614.27;;;5.43;99.17
41706;BME280;27385;51.096;17.190;2023-12-20T11:27:15;99608.81;;;5.45;99.23
41706;BME280;27385;51.096;17.190;2023-12-20T11:30:08;99602.58;;;5.46;98.89
41706;BME280;27385;51.096;17.190;2023-12-20T11:33:00;99602.40;;;5.49;98.38
41706;BME280;27385;51.096;17.190;2023-12-20T11:35:51;99599.39;;;5.53;98.67
41706;BME280;27385;51.096;17.190;2023-12-20T11:38:54;99593.48;;;5.59;98.78
41706;BME280;27385;51.096;17.190;2023-12-20T11:41:47;99588.07;;;5.67;99.15
41706;BME280;27385;51.096;17.190;2023-12-20T11:44:39;99587.77;;;5.74;99.00
41706;BME280;27385;51.096;17.190;2023-12-20T11:47:34;99576.99;;;5.80;98.69
41706;BME280;27385;51.096;17.190;2023-12-20T11:50:25;99571.45;;;5.85;98.92
41706;BME280;27385;51.096;17.190;2023-12-20T11:53:17;99565.35;;;5.88;98.19
41706;BME280;27385;51.096;17.190;2023-12-20T11:56:10;99560.13;;;5.92;98.19
41706;BME280;27385;51.096;17.190;2023-12-20T11:59:01;99556.08;;;5.97;98.04
41706;BME280;27385;51.096;17.190;2023-12-20T12:01:52;99552.73;;;6.01;97.51
41706;BME280;27385;51.096;17.190;2023-12-20T12:04:45;99549.20;;;6.04;96.81
41706;BME280;27385;51.096;17.190;2023-12-20T12:07:40;99549.68;;;6.07;96.26
41706;BME280;27385;51.096;17.190;2023-12-20T12:10:32;99546.79;;;6.12;96.57
41706;BME280;27385;51.096;17.190;2023-12-20T12:13:23;99544.88;;;6.15;96.13
41706;BME280;27385;51.096;17.190;2023-12-20T12:16:19;99538.69;;;6.17;95.72
41706;BME280;27385;51.096;17.190;2023-12-20T12:19:21;99529.89;;;6.17;95.32
41706;BME280;27385;51.096;17.190;2023-12-20T12:22:14;99521.64;;;6.18;95.44
41706;BME280;27385;51.096;17.190;2023-12-20T12:25:13;99520.86;;;6.17;94.97
41706;BME280;27385;51.096;17.190;2023-12-20T12:28:04;99516.63;;;6.17;94.65
41706;BME280;27385;51.096;17.190;2023-12-20T12:31:00;99508.41;;;6.15;94.40
41706;BME280;27385;51.096;17.190;2023-12-20T12:33:51;99503.45;;;6.14;94.02
41706;BME280;27385;51.096;17.190;2023-12-20T12:36:42;99506.13;;;6.13;93.79
41706;BME280;27385;51.096;17.190;2023-12-20T12:39:33;99507.52;;;6.12;93.68
41706;BME280;27385;51.096;17.190;2023-12-20T12:42:24;99503.02;;;6.11;93.92
41706;BME280;27385;51.096;17.190;2023-12-20T12:45:18;99496.06;;;6.11;93.80
41706;BME280;27385;51.096;17.190;2023-12-20T12:48:09;99498.10;;;6.11;93.66
41706;BME280;27385;51.096;17.190;2023-12-20T12:51:00;99487.60;;;6.11;93.05
41706;BME280;27385;51.096;17.190;2023-12-20T12:53:50;99488.80;;;6.11;93.00
41706;BME280;27385;51.096;17.190;2023-12-20T12:56:41;99492.71;;;6.11;93.14
41706;BME280;27385;51.096;17.190;2023-12-20T12:59:33;99491.54;;;6.11;92.83
41706;BME280;27385;51.096;17.190;2023-12-20T13:02:24;99487.59;;;6.11;92.86
41706;BME280;27385;51.096;17.190;2023-12-20T13:05:15;99494.98;;;6.12;92.97
41706;BME280;27385;51.096;17.190;2023-12-20T13:08:07;99499.45;;;6.11;92.10
41706;BME280;27385;51.096;17.190;2023-12-20T13:10:59;99499.45;;;6.11;92.27
41706;BME280;27385;51.096;17.190;2023-12-20T13:13:50;99493.60;;;6.11;92.53
41706;BME280;27385;51.096;17.190;2023-12-20T13:16:40;99488.77;;;6.11;92.38
41706;BME280;27385;51.096;17.190;2023-12-20T13:19:29;99488.98;;;6.12;92.30
41706;BME280;27385;51.096;17.190;2023-12-20T13:22:20;99478.17;;;6.11;92.45
41706;BME280;27385;51.096;17.190;2023-12-20T13:25:11;99475.33;;;6.09;91.56
41706;BME280;27385;51.096;17.190;2023-12-20T13:28:02;99472.28;;;6.08;91.68
41706;BME280;27385;51.096;17.190;2023-12-20T13:30:53;99478.22;;;6.08;91.69
41706;BME280;27385;51.096;17.190;2023-12-20T13:33:43;99484.47;;;6.09;91.39
41706;BME280;27385;51.096;17.190;2023-12-20T13:36:34;99479.08;;;6.09;91.43
41706;BME280;27385;51.096;17.190;2023-12-20T13:39:25;99479.14;;;6.09;91.35
41706;BME280;27385;51.096;17.190;2023-12-20T13:42:16;99472.18;;;6.09;90.93
41706;BME280;27385;51.096;17.190;2023-12-20T13:45:08;99472.73;;;6.07;90.75
41706;BME280;27385;51.096;17.190;2023-12-20T13:48:00;99470.63;;;6.05;90.33
41706;BME280;27385;51.096;17.190;2023-12-20T13:50:50;99466.02;;;6.02;90.31
41706;BME280;27385;51.096;17.190;2023-12-20T13:53:41;99462.20;;;6.01;89.96
41706;BME280;27385;51.096;17.190;2023-12-20T13:56:32;99462.30;;;6.00;90.20
41706;BME280;27385;51.096;17.190;2023-12-20T13:59:24;99458.88;;;6.00;90.41
41706;BME280;27385;51.096;17.190;2023-12-20T14:02:15;99462.48;;;6.01;90.12
41706;BME280;27385;51.096;17.190;2023-12-20T14:05:07;99462.66;;;6.03;89.96
41706;BME280;27385;51.096;17.190;2023-12-20T14:07:58;99461.98;;;6.04;88.98
41706;BME280;27385;51.096;17.190;2023-12-20T14:10:49;99463.58;;;6.05;88.79
41706;BME280;27385;51.096;17.190;2023-12-20T14:13:40;99453.88;;;6.06;88.98
41706;BME280;27385;51.096;17.190;2023-12-20T14:16:31;99449.40;;;6.07;89.03
41706;BME280;27385;51.096;17.190;2023-12-20T14:19:22;99452.58;;;6.07;88.63
41706;BME280;27385;51.096;17.190;2023-12-20T14:22:11;99455.40;;;6.07;88.41
41706;BME280;27385;51.096;17.190;2023-12-20T14:25:07;99457.53;;;6.07;88.38
41706;BME280;27385;51.096;17.190;2023-12-20T14:28:00;99452.86;;;6.07;88.07
41706;BME280;27385;51.096;17.190;2023-12-20T14:30:51;99446.83;;;6.08;88.12
41706;BME280;27385;51.096;17.190;2023-12-20T14:33:42;99448.90;;;6.09;87.80
41706;BME280;27385;51.096;17.190;2023-12-20T14:36:31;99449.56;;;6.08;87.83
41706;BME280;27385;51.096;17.190;2023-12-20T14:39:22;99445.08;;;6.08;88.01
41706;BME280;27385;51.096;17.190;2023-12-20T14:42:12;99446.23;;;6.08;87.38
41706;BME280;27385;51.096;17.190;2023-12-20T14:45:04;99444.64;;;6.09;87.19
41706;BME280;27385;51.096;17.190;2023-12-20T14:47:55;99445.42;;;6.09;87.51
41706;BME280;27385;51.096;17.190;2023-12-20T14:50:46;99446.09;;;6.08;86.88
41706;BME280;27385;51.096;17.190;2023-12-20T14:53:37;99439.13;;;6.08;86.75
41706;BME280;27385;51.096;17.190;2023-12-20T14:56:28;99436.35;;;6.08;86.53
41706;BME280;27385;51.096;17.190;2023-12-20T14:59:20;99429.41;;;6.09;86.37
41706;BME280;27385;51.096;17.190;2023-12-20T15:02:11;99428.56;;;6.09;86.14